createdAt,value
2023-05-17T00:02:07.645Z,44.85
2023-05-17T00:04:37.736Z,39.22
2023-05-17T00:07:07.763Z,38.97
2023-05-17T00:09:38.034Z,38.92
2023-05-17T00:12:08.167Z,39.33
2023-05-17T00:14:38.261Z,39.70
2023-05-17T00:17:08.810Z,41.33
2023-05-17T00:19:39.037Z,41.60
2023-05-17T00:22:09.700Z,40.92
2023-05-17T00:24:39.733Z,39.00
2023-05-17T00:27:09.756Z,37.47
2023-05-17T00:29:39.975Z,37.58
2023-05-17T00:32:09.970Z,35.22
2023-05-17T00:34:39.915Z,35.53
2023-05-17T00:37:09.745Z,34.60
2023-05-17T00:39:39.945Z,35.50
2023-05-17T00:42:10.153Z,37.40
2023-05-17T00:44:40.117Z,38.10
2023-05-17T00:47:09.898Z,40.60
2023-05-17T00:49:40.379Z,42.63
2023-05-17T00:52:11.722Z,41.33
2023-05-17T00:54:42.624Z,38.42
2023-05-17T00:57:13.207Z,36.20
2023-05-17T00:59:46.809Z,34.67
2023-05-17T01:02:17.238Z,36.65
2023-05-17T01:04:47.214Z,33.05
2023-05-17T01:07:19.410Z,32.83
2023-05-17T01:09:50.204Z,33.65
2023-05-17T01:12:48.440Z,33.25
2023-05-17T01:15:30.831Z,34.00
2023-05-17T01:18:25.650Z,32.08
2023-05-17T01:21:01.056Z,33.53
2023-05-17T01:23:53.919Z,33.10
2023-05-17T01:26:48.233Z,38.50
2023-05-17T01:29:22.695Z,31.27
2023-05-17T01:31:53.250Z,31.88
2023-05-17T01:34:30.757Z,28.80
2023-05-17T01:37:01.985Z,32.35
2023-05-17T01:39:33.442Z,34.53
2023-05-17T01:42:18.546Z,30.85
2023-05-17T01:44:59.209Z,28.38
2023-05-17T01:47:51.328Z,29.65
2023-05-17T01:50:26.368Z,27.15
2023-05-17T01:53:17.680Z,27.52
2023-05-17T01:55:58.591Z,28.52
2023-05-17T01:58:31.366Z,29.20
2023-05-17T02:01:04.081Z,27.05
2023-05-17T02:03:35.001Z,27.70
2023-05-17T02:06:05.456Z,27.08
2023-05-17T02:08:35.665Z,27.88
2023-05-17T02:11:05.808Z,28.90
2023-05-17T02:13:36.225Z,28.38
2023-05-17T02:16:06.879Z,26.90
2023-05-17T02:18:37.201Z,30.17
2023-05-17T02:21:07.811Z,28.27
2023-05-17T02:23:39.594Z,27.45
2023-05-17T02:26:09.778Z,47.47
2023-05-17T02:28:39.542Z,46.85
2023-05-17T02:31:11.143Z,28.00
2023-05-17T02:33:42.324Z,29.52
2023-05-17T02:36:12.911Z,28.45
2023-05-17T02:38:42.712Z,26.33
2023-05-17T02:41:15.024Z,27.40
2023-05-17T02:43:45.185Z,26.10
2023-05-17T02:46:15.392Z,27.98
2023-05-17T02:48:47.284Z,27.00
2023-05-17T02:51:17.291Z,26.50
2023-05-17T02:53:47.462Z,27.88
2023-05-17T02:56:17.662Z,25.38
2023-05-17T02:58:47.934Z,26.45
2023-05-17T03:01:18.371Z,25.25
2023-05-17T03:03:48.513Z,24.73
2023-05-17T03:06:18.812Z,24.48
2023-05-17T03:08:48.656Z,24.00
2023-05-17T03:11:19.210Z,24.60
2023-05-17T03:13:53.015Z,25.15
2023-05-17T03:16:28.081Z,26.15
2023-05-17T03:18:59.640Z,24.55
2023-05-17T03:21:30.135Z,24.30
2023-05-17T03:24:00.011Z,22.88
2023-05-17T03:26:34.800Z,24.05
2023-05-17T03:29:05.261Z,24.00
2023-05-17T03:31:35.475Z,24.80
2023-05-17T03:34:05.945Z,25.27
2023-05-17T03:36:37.443Z,25.73
2023-05-17T03:39:07.741Z,24.90
2023-05-17T03:41:39.558Z,23.67
2023-05-17T03:44:10.405Z,25.30
2023-05-17T03:46:40.561Z,25.55
2023-05-17T03:49:11.445Z,23.75
2023-05-17T03:51:42.522Z,23.55
2023-05-17T03:54:12.768Z,23.33
2023-05-17T03:56:42.522Z,21.13
2023-05-17T03:59:12.485Z,22.88
2023-05-17T04:01:44.774Z,25.33
2023-05-17T04:04:16.400Z,24.60
2023-05-17T04:06:46.530Z,24.15
2023-05-17T04:09:17.143Z,22.20
2023-05-17T04:11:47.353Z,22.60
2023-05-17T04:14:17.511Z,22.95
2023-05-17T04:16:48.378Z,23.23
2023-05-17T04:19:18.861Z,23.70
2023-05-17T04:21:49.125Z,22.85
2023-05-17T04:24:19.393Z,22.92
2023-05-17T04:26:49.634Z,22.92
2023-05-17T04:29:22.083Z,24.75
2023-05-17T04:31:52.537Z,22.52
2023-05-17T04:34:23.958Z,22.67
2023-05-17T04:36:55.786Z,24.00
2023-05-17T04:39:26.367Z,22.45
2023-05-17T04:41:56.886Z,21.90
2023-05-17T04:44:27.402Z,20.80
2023-05-17T04:46:58.283Z,21.35
2023-05-17T04:49:29.884Z,21.50
2023-05-17T04:52:00.655Z,22.02
2023-05-17T04:54:30.795Z,21.88
2023-05-17T04:57:01.088Z,22.52
2023-05-17T04:59:50.601Z,21.88
2023-05-17T05:02:20.917Z,20.92
2023-05-17T05:04:50.959Z,21.35
2023-05-17T05:07:23.792Z,22.00
2023-05-17T05:09:54.037Z,21.92
2023-05-17T05:12:26.017Z,20.90
2023-05-17T05:14:56.505Z,20.38
2023-05-17T05:17:27.449Z,19.75
2023-05-17T05:19:57.938Z,20.92
2023-05-17T05:22:29.218Z,20.42
2023-05-17T05:24:59.442Z,20.52
2023-05-17T05:27:29.349Z,21.23
2023-05-17T05:29:59.479Z,18.45
2023-05-17T05:32:29.626Z,20.77
2023-05-17T05:35:00.057Z,20.35
2023-05-17T05:37:29.929Z,20.95
2023-05-17T05:40:00.806Z,21.52
2023-05-17T05:42:31.831Z,21.13
2023-05-17T05:45:02.159Z,20.65
2023-05-17T05:47:32.097Z,20.88
2023-05-17T05:50:02.317Z,20.85
2023-05-17T05:52:34.412Z,20.27
2023-05-17T05:55:04.644Z,21.20
2023-05-17T05:57:34.430Z,20.77
2023-05-17T06:00:06.414Z,19.95
2023-05-17T06:02:42.804Z,20.80
2023-05-17T06:05:12.861Z,21.02
2023-05-17T06:07:42.690Z,20.75
2023-05-17T06:10:13.575Z,20.85
2023-05-17T06:12:46.306Z,22.67
2023-05-17T06:15:16.433Z,23.80
2023-05-17T06:17:46.360Z,21.27
2023-05-17T06:20:17.907Z,21.10
2023-05-17T06:22:48.158Z,22.08
2023-05-17T06:25:17.956Z,20.15
2023-05-17T06:27:47.997Z,19.88
2023-05-17T06:30:17.811Z,19.85
2023-05-17T06:32:48.010Z,21.08
2023-05-17T06:35:17.984Z,21.45
2023-05-17T06:37:48.413Z,21.25
2023-05-17T06:40:18.412Z,21.92
2023-05-17T06:42:50.148Z,20.08
2023-05-17T06:45:22.516Z,20.55
2023-05-17T06:47:52.974Z,21.25
2023-05-17T06:50:22.965Z,21.02
2023-05-17T06:52:52.774Z,20.85
2023-05-17T06:55:22.992Z,20.52
2023-05-17T06:57:52.798Z,20.60
2023-05-17T07:00:22.955Z,20.83
2023-05-17T07:02:52.797Z,19.88
2023-05-17T07:05:25.774Z,21.88
2023-05-17T07:07:58.865Z,21.65
2023-05-17T07:10:29.116Z,20.50
2023-05-17T07:12:58.853Z,20.90
2023-05-17T07:15:29.078Z,20.95
2023-05-17T07:18:01.422Z,20.65
2023-05-17T07:20:32.068Z,19.73
2023-05-17T07:23:02.865Z,20.30
2023-05-17T07:25:33.685Z,20.13
2023-05-17T07:28:03.986Z,19.92
2023-05-17T07:30:33.959Z,19.65
2023-05-17T07:33:07.494Z,19.00
2023-05-17T07:35:37.827Z,20.40
2023-05-17T07:38:08.136Z,20.30
2023-05-17T07:40:38.799Z,19.50
2023-05-17T07:43:08.633Z,19.88
2023-05-17T07:45:38.964Z,19.80
2023-05-17T07:48:09.376Z,18.77
2023-05-17T07:50:40.172Z,18.73
2023-05-17T07:53:10.241Z,19.05
2023-05-17T07:55:40.755Z,19.27
2023-05-17T07:58:13.493Z,19.50
2023-05-17T08:00:44.466Z,19.38
2023-05-17T08:03:17.231Z,19.98
2023-05-17T08:05:48.043Z,19.65
2023-05-17T08:08:18.276Z,19.95
2023-05-17T08:10:49.437Z,19.40
2023-05-17T08:13:20.176Z,19.73
2023-05-17T08:15:51.657Z,20.20
2023-05-17T08:18:25.057Z,19.90
2023-05-17T08:20:55.669Z,17.65
2023-05-17T08:23:25.624Z,17.48
2023-05-17T08:25:56.028Z,17.27
2023-05-17T08:28:26.160Z,17.52
2023-05-17T08:30:56.071Z,17.80
2023-05-17T08:33:28.030Z,18.55
2023-05-17T08:35:59.773Z,17.83
2023-05-17T08:38:30.255Z,18.42
2023-05-17T08:41:01.706Z,18.85
2023-05-17T08:43:35.818Z,17.98
2023-05-17T08:46:06.248Z,18.50
2023-05-17T08:48:43.552Z,18.13
2023-05-17T08:51:14.839Z,17.63
2023-05-17T08:53:48.569Z,17.08
2023-05-17T08:56:23.100Z,17.70
2023-05-17T08:58:58.440Z,17.85
2023-05-17T09:01:32.253Z,17.75
2023-05-17T09:04:03.742Z,25.17
2023-05-17T09:06:35.220Z,16.95
2023-05-17T09:09:09.570Z,16.90
2023-05-17T09:11:42.600Z,17.42
2023-05-17T09:14:13.174Z,17.42
2023-05-17T09:16:45.140Z,17.13
2023-05-17T09:19:19.768Z,17.88
2023-05-17T09:21:50.206Z,17.67
2023-05-17T09:24:29.467Z,17.02
2023-05-17T09:27:08.258Z,17.20
2023-05-17T09:29:41.515Z,17.90
2023-05-17T09:35:15.241Z,17.75
2023-05-17T09:37:47.544Z,21.23
2023-05-17T09:40:27.424Z,17.42
2023-05-17T09:42:57.926Z,19.60
2023-05-17T09:45:28.151Z,19.02
2023-05-17T09:47:58.598Z,19.48
2023-05-17T09:50:28.589Z,17.35
2023-05-17T09:52:58.588Z,18.70
2023-05-17T09:55:30.117Z,18.88
2023-05-17T09:58:05.389Z,18.67
2023-05-17T10:00:35.501Z,17.60
2023-05-17T10:03:08.104Z,18.80
2023-05-17T10:05:39.419Z,18.85
2023-05-17T10:08:09.715Z,18.60
2023-05-17T10:10:40.452Z,18.83
2023-05-17T10:13:14.585Z,19.48
2023-05-17T10:15:45.397Z,18.83
2023-05-17T10:18:17.003Z,20.13
2023-05-17T10:20:47.824Z,22.70
2023-05-17T10:23:18.572Z,19.13
2023-05-17T10:25:49.092Z,18.85
2023-05-17T10:28:20.643Z,19.50
2023-05-17T10:30:52.799Z,19.55
2023-05-17T10:33:24.666Z,19.80
2023-05-17T10:35:57.619Z,20.02
2023-05-17T10:38:41.653Z,20.15
2023-05-17T10:41:15.035Z,19.17
2023-05-17T10:43:47.303Z,18.30
2023-05-17T10:46:25.599Z,20.65
2023-05-17T10:48:59.791Z,19.05
2023-05-17T10:51:39.155Z,20.45
2023-05-17T10:54:19.737Z,20.05
2023-05-17T10:56:54.849Z,19.52
2023-05-17T10:59:28.507Z,20.05
2023-05-17T11:02:07.249Z,20.90
2023-05-17T11:04:40.236Z,20.17
2023-05-17T11:07:33.541Z,20.73
2023-05-17T11:10:16.047Z,21.75
2023-05-17T11:12:49.678Z,22.73
2023-05-17T11:15:20.155Z,21.67
2023-05-17T11:17:55.658Z,21.10
2023-05-17T11:20:44.529Z,21.48
2023-05-17T11:23:20.297Z,25.90
2023-05-17T11:25:52.146Z,25.73
2023-05-17T11:28:24.820Z,24.30
2023-05-17T11:31:03.000Z,23.80
2023-05-17T11:33:46.966Z,24.20
2023-05-17T11:36:23.022Z,23.02
2023-05-17T11:39:13.510Z,23.08
2023-05-17T11:41:54.345Z,24.40
2023-05-17T11:44:33.043Z,25.20
2023-05-17T11:47:06.002Z,23.83
2023-05-17T11:49:39.277Z,24.52
2023-05-17T11:52:10.197Z,25.85
2023-05-17T11:54:41.870Z,26.02
2023-05-17T11:57:14.054Z,25.13
2023-05-17T11:59:45.382Z,25.05
2023-05-17T12:02:29.936Z,28.67
2023-05-17T12:05:00.834Z,34.92
2023-05-17T12:07:31.932Z,46.15
2023-05-17T12:10:01.919Z,52.70
2023-05-17T12:12:32.255Z,83.07
2023-05-17T12:15:02.422Z,57.05
2023-05-17T12:17:39.146Z,53.90
2023-05-17T12:20:10.981Z,51.58
2023-05-17T12:23:01.328Z,51.83
2023-05-17T12:25:31.622Z,54.55
2023-05-17T12:28:23.858Z,49.80
2023-05-17T12:31:04.442Z,48.60
2023-05-17T12:33:37.894Z,47.63
2023-05-17T12:36:09.600Z,45.17
2023-05-17T12:38:42.166Z,44.10
2023-05-17T12:41:17.451Z,44.35
2023-05-17T12:43:48.398Z,42.63
2023-05-17T12:46:22.260Z,40.97
2023-05-17T12:48:59.442Z,37.90
2023-05-17T12:51:29.647Z,37.30
2023-05-17T12:54:02.102Z,38.97
2023-05-17T12:56:32.809Z,40.33
2023-05-17T12:59:22.642Z,39.83
2023-05-17T13:01:57.031Z,41.20
2023-05-17T13:04:34.989Z,44.10
2023-05-17T13:07:14.147Z,37.67
2023-05-17T13:09:50.643Z,37.70
2023-05-17T13:12:25.770Z,37.63
2023-05-17T13:14:56.320Z,40.88
2023-05-17T13:17:51.436Z,44.90
2023-05-17T13:20:21.684Z,42.60
2023-05-17T13:22:52.693Z,41.10
2023-05-17T13:25:23.038Z,39.22
2023-05-17T13:27:54.568Z,36.58
2023-05-17T13:30:24.910Z,38.38
2023-05-17T13:32:56.025Z,37.33
2023-05-17T13:35:26.220Z,35.30
2023-05-17T13:37:56.177Z,37.40
2023-05-17T13:40:26.433Z,36.95
2023-05-17T13:42:56.479Z,35.47
2023-05-17T13:45:26.801Z,36.45
2023-05-17T13:47:56.702Z,36.25
2023-05-17T13:50:27.694Z,33.67
2023-05-17T13:52:58.190Z,33.45
2023-05-17T13:55:28.180Z,32.92
2023-05-17T13:57:58.161Z,31.42
2023-05-17T14:00:28.629Z,35.15
2023-05-17T14:02:59.041Z,35.50
2023-05-17T14:05:29.238Z,33.67
2023-05-17T14:07:59.376Z,33.05
2023-05-17T14:10:29.377Z,33.55
2023-05-17T14:12:59.850Z,32.70
2023-05-17T14:15:29.712Z,35.25
2023-05-17T14:18:00.067Z,34.65
2023-05-17T14:20:30.588Z,35.08
2023-05-17T14:23:02.084Z,35.85
2023-05-17T14:25:32.334Z,33.83
2023-05-17T14:28:02.136Z,32.53
2023-05-17T14:30:32.359Z,33.75
2023-05-17T14:33:02.335Z,33.45
2023-05-17T14:35:32.744Z,33.47
2023-05-17T14:38:02.634Z,37.72
2023-05-17T14:40:33.006Z,42.35
2023-05-17T14:43:03.186Z,36.25
2023-05-17T14:45:33.055Z,33.63
2023-05-17T14:48:03.208Z,34.58
2023-05-17T14:50:36.028Z,34.70
2023-05-17T14:53:06.648Z,33.50
2023-05-17T14:55:37.010Z,34.40
2023-05-17T14:58:06.836Z,33.13
2023-05-17T15:00:37.049Z,34.42
2023-05-17T15:03:07.063Z,33.40
2023-05-17T15:05:36.932Z,33.25
2023-05-17T15:08:07.181Z,32.05
2023-05-17T15:10:37.439Z,30.65
2023-05-17T15:13:07.416Z,32.63
2023-05-17T15:15:38.280Z,32.03
2023-05-17T15:18:09.014Z,33.40
2023-05-17T15:20:40.546Z,33.63
2023-05-17T15:23:11.383Z,33.58
2023-05-17T15:25:41.500Z,32.65
2023-05-17T15:28:11.243Z,34.50
2023-05-17T15:30:43.400Z,35.10
2023-05-17T15:33:13.787Z,33.75
2023-05-17T15:35:44.682Z,31.15
2023-05-17T15:38:18.596Z,36.50
2023-05-17T15:40:48.616Z,42.25
2023-05-17T15:43:18.503Z,37.47
2023-05-17T15:45:48.505Z,30.30
2023-05-17T15:48:19.402Z,31.13
2023-05-17T15:50:49.599Z,35.03
2023-05-17T15:53:19.428Z,30.17
2023-05-17T15:55:52.932Z,29.95
2023-05-17T15:58:29.544Z,29.55
2023-05-17T16:00:59.723Z,30.65
2023-05-17T16:03:29.928Z,29.27
2023-05-17T16:06:00.518Z,29.20
2023-05-17T16:08:30.339Z,30.88
2023-05-17T16:11:02.584Z,29.30
2023-05-17T16:13:32.964Z,30.20
2023-05-17T16:16:03.268Z,29.45
2023-05-17T16:18:34.552Z,29.88
2023-05-17T16:21:06.571Z,31.65
2023-05-17T16:23:37.473Z,31.90
2023-05-17T16:26:08.667Z,32.17
2023-05-17T16:28:38.614Z,32.08
2023-05-17T16:31:08.819Z,30.45
2023-05-17T16:33:39.030Z,30.30
2023-05-17T16:36:09.201Z,29.15
2023-05-17T16:38:39.222Z,30.02
2023-05-17T16:41:09.381Z,27.67
2023-05-17T16:43:39.606Z,29.75
2023-05-17T16:46:09.328Z,29.08
2023-05-17T16:48:39.368Z,30.17
2023-05-17T16:51:09.161Z,30.67
2023-05-17T16:53:39.378Z,30.33
2023-05-17T16:56:09.296Z,29.60
2023-05-17T16:58:39.308Z,29.63
2023-05-17T17:01:09.059Z,31.60
2023-05-17T17:03:39.240Z,30.63
2023-05-17T17:06:09.060Z,30.42
2023-05-17T17:08:40.066Z,30.55
2023-05-17T17:11:10.268Z,31.08
2023-05-17T17:13:40.078Z,31.25
2023-05-17T17:16:10.109Z,33.00
2023-05-17T17:18:40.142Z,32.30
2023-05-17T17:21:10.276Z,34.38
2023-05-17T17:23:41.855Z,33.00
2023-05-17T17:26:15.406Z,33.78
2023-05-17T17:28:45.831Z,32.17
2023-05-17T17:31:15.737Z,32.05
2023-05-17T17:33:45.933Z,33.33
2023-05-17T17:36:16.214Z,31.52
2023-05-17T17:38:46.255Z,32.58
2023-05-17T17:41:16.047Z,32.42
2023-05-17T17:43:48.462Z,33.35
2023-05-17T17:46:19.130Z,33.33
2023-05-17T17:48:49.354Z,34.22
2023-05-17T17:51:19.243Z,32.55
2023-05-17T17:53:50.352Z,32.08
2023-05-17T17:56:20.990Z,32.70
2023-05-17T17:58:51.397Z,32.00
2023-05-17T18:01:21.224Z,33.35
2023-05-17T18:03:51.746Z,32.13
2023-05-17T18:06:21.560Z,32.58
2023-05-17T18:08:51.519Z,32.85
2023-05-17T18:11:21.291Z,32.72
2023-05-17T18:13:51.890Z,32.67
2023-05-17T18:16:21.922Z,33.33
2023-05-17T18:18:52.834Z,34.30
2023-05-17T18:21:23.435Z,34.40
2023-05-17T18:23:53.657Z,35.25
2023-05-17T18:26:24.657Z,34.35
2023-05-17T18:28:54.841Z,33.88
2023-05-17T18:31:24.703Z,35.25
2023-05-17T18:33:56.452Z,32.38
2023-05-17T18:36:27.769Z,33.30
2023-05-17T18:39:00.131Z,34.05
2023-05-17T18:41:30.429Z,34.72
2023-05-17T18:44:03.642Z,33.17
2023-05-17T18:46:34.578Z,34.20
2023-05-17T18:49:05.789Z,34.13
2023-05-17T18:51:36.097Z,34.60
2023-05-17T18:54:06.341Z,33.60
2023-05-17T18:56:36.346Z,33.42
2023-05-17T18:59:07.142Z,33.97
2023-05-17T19:01:38.686Z,34.90
2023-05-17T19:04:08.838Z,34.08
2023-05-17T19:06:42.735Z,33.95
2023-05-17T19:09:12.956Z,35.05
2023-05-17T19:11:42.802Z,35.13
2023-05-17T19:14:13.001Z,36.53
2023-05-17T19:16:43.469Z,41.97
2023-05-17T19:19:13.744Z,38.00
2023-05-17T19:21:43.967Z,38.80
2023-05-17T19:24:14.529Z,38.22
2023-05-17T19:26:44.409Z,38.25
2023-05-17T19:29:14.412Z,38.47
2023-05-17T19:31:44.341Z,38.50
2023-05-17T19:34:14.676Z,38.17
2023-05-17T19:36:44.578Z,37.15
2023-05-17T19:39:14.622Z,37.08
2023-05-17T19:41:44.443Z,38.75
2023-05-17T19:44:15.063Z,36.40
2023-05-17T19:46:45.258Z,39.05
2023-05-17T19:49:15.343Z,38.70
2023-05-17T19:51:46.877Z,38.42
2023-05-17T19:54:17.039Z,35.20
2023-05-17T19:56:47.542Z,34.63
2023-05-17T19:59:17.731Z,37.90
2023-05-17T20:01:47.803Z,37.92
2023-05-17T20:04:18.625Z,36.47
2023-05-17T20:06:48.578Z,36.60
2023-05-17T20:09:18.964Z,40.15
2023-05-17T20:11:49.628Z,40.67
2023-05-17T20:14:20.035Z,39.10
2023-05-17T20:16:50.427Z,39.83
2023-05-17T20:19:20.795Z,39.65
2023-05-17T20:21:51.011Z,40.72
2023-05-17T20:24:23.855Z,39.92
2023-05-17T20:26:54.364Z,40.95
2023-05-17T20:29:24.301Z,40.08
2023-05-17T20:31:54.736Z,38.35
2023-05-17T20:34:25.652Z,39.30
2023-05-17T20:37:00.478Z,38.67
2023-05-17T20:39:31.512Z,37.40
2023-05-17T20:42:02.861Z,40.10
2023-05-17T20:44:34.812Z,40.63
2023-05-17T20:47:07.324Z,43.92
2023-05-17T20:49:37.392Z,42.75
2023-05-17T20:52:08.021Z,43.38
2023-05-17T20:54:38.646Z,41.28
2023-05-17T20:57:08.500Z,41.40
2023-05-17T20:59:38.465Z,40.63
2023-05-17T21:02:08.839Z,41.72
2023-05-17T21:04:39.140Z,40.45
2023-05-17T21:07:12.004Z,40.88
2023-05-17T21:09:42.789Z,40.00
2023-05-17T21:12:12.717Z,38.78
2023-05-17T21:14:42.715Z,38.40
2023-05-17T21:17:12.584Z,39.65
2023-05-17T21:19:42.783Z,38.53
2023-05-17T21:22:13.012Z,39.20
2023-05-17T21:24:43.244Z,38.42
2023-05-17T21:27:13.265Z,40.15
2023-05-17T21:29:43.681Z,40.05
2023-05-17T21:32:13.506Z,38.80
2023-05-17T21:34:44.860Z,36.63
2023-05-17T21:37:15.972Z,38.97
2023-05-17T21:39:46.479Z,39.22
2023-05-17T21:42:16.262Z,38.33
2023-05-17T21:44:46.255Z,38.28
2023-05-17T21:47:16.108Z,38.33
2023-05-17T21:49:46.301Z,35.65
2023-05-17T21:52:16.073Z,38.65
2023-05-17T21:54:46.892Z,38.80
2023-05-17T21:57:17.049Z,37.42
2023-05-17T21:59:47.563Z,35.67
2023-05-17T22:02:17.983Z,35.53
2023-05-17T22:04:49.187Z,36.22
2023-05-17T22:07:19.458Z,35.38
2023-05-17T22:09:49.771Z,34.33
2023-05-17T22:12:27.029Z,34.58
2023-05-17T22:14:58.284Z,34.95
2023-05-17T22:17:43.160Z,36.47
2023-05-17T22:20:21.068Z,36.55
2023-05-17T22:22:51.212Z,35.85
2023-05-17T22:25:22.198Z,35.03
2023-05-17T22:27:52.624Z,36.00
2023-05-17T22:30:23.227Z,36.97
2023-05-17T22:32:56.076Z,37.15
2023-05-17T22:35:26.440Z,37.35
2023-05-17T22:37:59.839Z,34.42
2023-05-17T22:40:30.423Z,37.97
2023-05-17T22:43:01.498Z,37.92
2023-05-17T22:45:34.347Z,38.13
2023-05-17T22:48:05.227Z,37.13
2023-05-17T22:50:36.081Z,39.45
2023-05-17T22:53:07.570Z,38.00
2023-05-17T22:55:37.843Z,41.50
2023-05-17T22:58:08.080Z,38.22
2023-05-17T23:00:38.232Z,38.78
2023-05-17T23:03:08.511Z,37.47
2023-05-17T23:05:39.187Z,36.22
2023-05-17T23:08:09.489Z,37.65
2023-05-17T23:10:39.443Z,37.63
2023-05-17T23:13:10.527Z,36.22
2023-05-17T23:15:42.153Z,35.75
2023-05-17T23:18:13.229Z,36.13
2023-05-17T23:20:44.470Z,38.83
2023-05-17T23:23:17.930Z,36.22
2023-05-17T23:25:50.044Z,37.08
2023-05-17T23:28:20.274Z,35.08
2023-05-17T23:30:50.488Z,34.88
2023-05-17T23:33:20.894Z,35.10
2023-05-17T23:35:50.748Z,37.45
2023-05-17T23:38:21.130Z,37.03
2023-05-17T23:40:51.212Z,36.13
2023-05-17T23:43:21.445Z,35.60
2023-05-17T23:45:51.546Z,35.72
2023-05-17T23:48:22.683Z,35.10
2023-05-17T23:50:53.004Z,34.33
2023-05-17T23:53:24.998Z,34.35
2023-05-17T23:55:56.807Z,34.45
2023-05-17T23:58:27.517Z,35.42
